sensor_id;sensor_type;location;lat;lon;timestamp;pressure;altitude;pressure_sealevel;temperature;humidity
70902;BME280;58548;47.210;8.618;2023-04-01T00:00:52;93211.19;;;16.17;35.83
70902;BME280;58548;47.210;8.618;2023-04-01T00:03:20;93202.34;;;16.06;35.65
70902;BME280;58548;47.210;8.618;2023-04-01T00:05:48;93196.91;;;16.12;35.42
70902;BME280;58548;47.210;8.618;2023-04-01T00:08:17;93083.78;;;15.34;35.49
70902;BME280;58548;47.210;8.618;2023-04-01T00:10:46;93175.47;;;16.04;35.47
70902;BME280;58548;47.210;8.618;2023-04-01T00:13:13;93188.03;;;16.19;35.20
70902;BME280;58548;47.210;8.618;2023-04-01T00:15:39;93182.75;;;16.19;35.03
70902;BME280;58548;47.210;8.618;2023-04-01T00:18:05;93204.44;;;16.26;34.85
70902;BME280;58548;47.210;8.618;2023-04-01T00:20:34;93110.50;;;15.65;35.09
70902;BME280;58548;47.210;8.618;2023-04-01T00:23:01;93200.03;;;16.32;35.44
70902;BME280;58548;47.210;8.618;2023-04-01T00:25:29;93207.31;;;16.24;34.82
70902;BME280;58548;47.210;8.618;2023-04-01T00:27:57;93218.72;;;16.30;34.55
70902;BME280;58548;47.210;8.618;2023-04-01T00:30:23;93089.19;;;15.44;34.74
70902;BME280;58548;47.210;8.618;2023-04-01T00:32:55;93205.91;;;16.17;34.92
70902;BME280;58548;47.210;8.618;2023-04-01T00:35:21;93228.94;;;16.04;35.08
70902;BME280;58548;47.210;8.618;2023-04-01T00:37:48;93230.09;;;16.13;35.29
70902;BME280;58548;47.210;8.618;2023-04-01T00:40:30;93118.69;;;15.46;34.96
70902;BME280;58548;47.210;8.618;2023-04-01T00:42:58;93111.63;;;15.30;35.06
70902;BME280;58548;47.210;8.618;2023-04-01T00:45:43;93234.06;;;15.94;35.35
70902;BME280;58548;47.210;8.618;2023-04-01T00:48:19;93228.31;;;15.97;35.30
70902;BME280;58548;47.210;8.618;2023-04-01T00:50:56;93120.06;;;15.32;35.15
70902;BME280;58548;47.210;8.618;2023-04-01T00:53:28;93125.16;;;15.38;34.99
70902;BME280;58548;47.210;8.618;2023-04-01T00:58:35;93112.31;;;15.03;34.86
70902;BME280;58548;47.210;8.618;2023-04-01T01:01:02;93090.66;;;14.78;35.57
70902;BME280;58548;47.210;8.618;2023-04-01T01:03:32;93225.03;;;15.50;35.36
70902;BME280;58548;47.210;8.618;2023-04-01T01:06:08;93224.06;;;15.57;34.99
70902;BME280;58548;47.210;8.618;2023-04-01T01:08:42;93230.63;;;15.54;35.62
70902;BME280;58548;47.210;8.618;2023-04-01T01:11:33;93217.94;;;15.34;35.65
70902;BME280;58548;47.210;8.618;2023-04-01T01:16:51;93223.59;;;15.60;35.51
70902;BME280;58548;47.210;8.618;2023-04-01T01:31:37;93212.78;;;16.18;34.79
70902;BME280;58548;47.210;8.618;2023-04-01T01:34:40;93085.56;;;15.28;34.80
70902;BME280;58548;47.210;8.618;2023-04-01T01:37:16;93098.47;;;15.30;34.88
70902;BME280;58548;47.210;8.618;2023-04-01T01:39:47;93174.00;;;15.91;34.32
70902;BME280;58548;47.210;8.618;2023-04-01T01:42:19;93102.94;;;15.51;34.63
70902;BME280;58548;47.210;8.618;2023-04-01T01:44:49;93202.63;;;16.04;34.56
70902;BME280;58548;47.210;8.618;2023-04-01T01:47:21;93211.59;;;15.86;34.99
70902;BME280;58548;47.210;8.618;2023-04-01T01:49:49;93092.75;;;15.16;35.17
70902;BME280;58548;47.210;8.618;2023-04-01T01:52:17;93079.78;;;15.09;34.43
70902;BME280;58548;47.210;8.618;2023-04-01T01:57:22;93067.47;;;14.92;34.71
70902;BME280;58548;47.210;8.618;2023-04-01T01:59:54;93181.03;;;15.68;34.54
70902;BME280;58548;47.210;8.618;2023-04-01T02:02:23;93045.25;;;14.83;34.81
70902;BME280;58548;47.210;8.618;2023-04-01T02:04:53;93181.69;;;15.75;34.63
70902;BME280;58548;47.210;8.618;2023-04-01T02:07:27;93075.16;;;14.99;34.32
70902;BME280;58548;47.210;8.618;2023-04-01T02:09:58;93149.84;;;15.37;34.60
70902;BME280;58548;47.210;8.618;2023-04-01T02:12:28;93189.59;;;15.58;34.34
70902;BME280;58548;47.210;8.618;2023-04-01T02:14:58;93189.84;;;15.57;34.11
70902;BME280;58548;47.210;8.618;2023-04-01T02:17:29;93167.75;;;15.58;34.54
70902;BME280;58548;47.210;8.618;2023-04-01T02:20:17;93175.75;;;15.63;34.72
70902;BME280;58548;47.210;8.618;2023-04-01T02:22:51;93155.94;;;15.60;34.70
70902;BME280;58548;47.210;8.618;2023-04-01T02:25:23;93147.19;;;15.55;34.35
70902;BME280;58548;47.210;8.618;2023-04-01T02:27:52;93079.84;;;15.14;34.45
70902;BME280;58548;47.210;8.618;2023-04-01T02:30:20;93184.94;;;15.82;34.10
70902;BME280;58548;47.210;8.618;2023-04-01T02:32:51;93186.88;;;15.87;34.48
70902;BME280;58548;47.210;8.618;2023-04-01T02:35:20;93153.16;;;15.67;33.90
70902;BME280;58548;47.210;8.618;2023-04-01T02:37:49;93188.53;;;15.93;34.12
70902;BME280;58548;47.210;8.618;2023-04-01T02:40:18;93192.44;;;15.91;34.24
70902;BME280;58548;47.210;8.618;2023-04-01T02:42:47;93080.06;;;15.30;33.96
70902;BME280;58548;47.210;8.618;2023-04-01T02:45:13;93125.00;;;15.67;33.98
70902;BME280;58548;47.210;8.618;2023-04-01T02:47:40;93187.38;;;16.06;33.89
70902;BME280;58548;47.210;8.618;2023-04-01T02:50:08;93185.03;;;16.10;33.74
70902;BME280;58548;47.210;8.618;2023-04-01T02:52:38;93058.81;;;15.36;33.36
70902;BME280;58548;47.210;8.618;2023-04-01T02:55:05;93177.09;;;16.32;33.34
70902;BME280;58548;47.210;8.618;2023-04-01T02:57:31;93162.72;;;16.18;33.11
70902;BME280;58548;47.210;8.618;2023-04-01T02:59:59;93165.34;;;16.18;33.29
70902;BME280;58548;47.210;8.618;2023-04-01T03:02:25;93171.19;;;16.20;33.36
70902;BME280;58548;47.210;8.618;2023-04-01T03:04:52;93175.47;;;16.26;33.27
70902;BME280;58548;47.210;8.618;2023-04-01T03:07:18;93056.75;;;15.61;33.07
70902;BME280;58548;47.210;8.618;2023-04-01T03:09:44;93155.94;;;16.22;33.20
70902;BME280;58548;47.210;8.618;2023-04-01T03:12:12;93161.97;;;16.22;33.07
70902;BME280;58548;47.210;8.618;2023-04-01T03:14:38;93159.59;;;16.21;32.92
70902;BME280;58548;47.210;8.618;2023-04-01T03:17:04;93075.19;;;15.61;32.42
70902;BME280;58548;47.210;8.618;2023-04-01T03:19:31;93182.13;;;16.11;32.83
70902;BME280;58548;47.210;8.618;2023-04-01T03:21:59;93145.88;;;15.74;32.74
70902;BME280;58548;47.210;8.618;2023-04-01T03:24:27;93169.56;;;15.74;32.94
70902;BME280;58548;47.210;8.618;2023-04-01T03:26:53;93139.56;;;15.53;32.80
70902;BME280;58548;47.210;8.618;2023-04-01T03:29:19;93165.03;;;15.70;32.54
70902;BME280;58548;47.210;8.618;2023-04-01T03:31:45;93124.44;;;15.43;32.45
70902;BME280;58548;47.210;8.618;2023-04-01T03:34:11;93089.22;;;15.27;32.60
70902;BME280;58548;47.210;8.618;2023-04-01T03:36:42;93054.59;;;15.13;32.45
70902;BME280;58548;47.210;8.618;2023-04-01T03:39:10;92977.16;;;14.65;32.24
70902;BME280;58548;47.210;8.618;2023-04-01T03:41:39;93064.22;;;15.25;31.84
70902;BME280;58548;47.210;8.618;2023-04-01T03:44:07;93071.00;;;15.43;32.09
70902;BME280;58548;47.210;8.618;2023-04-01T03:46:35;92971.03;;;14.76;32.13
70902;BME280;58548;47.210;8.618;2023-04-01T03:49:06;93132.78;;;15.79;32.06
70902;BME280;58548;47.210;8.618;2023-04-01T03:51:38;93173.72;;;16.09;32.03
70902;BME280;58548;47.210;8.618;2023-04-01T03:54:05;93045.25;;;15.22;32.11
70902;BME280;58548;47.210;8.618;2023-04-01T03:56:32;93182.94;;;16.12;31.98
70902;BME280;58548;47.210;8.618;2023-04-01T03:58:58;93080.25;;;15.45;31.92
70902;BME280;58548;47.210;8.618;2023-04-01T04:01:24;93118.09;;;15.83;31.92
70902;BME280;58548;47.210;8.618;2023-04-01T04:03:50;93076.84;;;15.67;31.76
70902;BME280;58548;47.210;8.618;2023-04-01T04:06:20;93086.50;;;15.83;31.31
70902;BME280;58548;47.210;8.618;2023-04-01T04:08:48;93168.81;;;16.46;31.04
70902;BME280;58548;47.210;8.618;2023-04-01T04:11:18;93052.69;;;15.75;31.12
70902;BME280;58548;47.210;8.618;2023-04-01T04:13:44;93127.16;;;16.15;31.51
70902;BME280;58548;47.210;8.618;2023-04-01T04:16:14;93168.97;;;16.34;31.15
70902;BME280;58548;47.210;8.618;2023-04-01T04:18:40;93130.47;;;16.05;31.33
70902;BME280;58548;47.210;8.618;2023-04-01T04:21:13;93056.94;;;15.54;31.23
70902;BME280;58548;47.210;8.618;2023-04-01T04:23:42;93059.63;;;15.59;31.45
70902;BME280;58548;47.210;8.618;2023-04-01T04:26:13;93147.47;;;16.20;30.79
70902;BME280;58548;47.210;8.618;2023-04-01T04:28:41;93043.97;;;15.47;31.12
70902;BME280;58548;47.210;8.618;2023-04-01T04:31:21;93145.78;;;16.08;31.15
70902;BME280;58548;47.210;8.618;2023-04-01T04:33:53;93175.88;;;16.18;31.21
70902;BME280;58548;47.210;8.618;2023-04-01T04:36:20;93170.56;;;16.12;30.95
70902;BME280;58548;47.210;8.618;2023-04-01T04:38:46;93168.59;;;16.03;30.80
70902;BME280;58548;47.210;8.618;2023-04-01T04:41:14;93124.94;;;15.85;30.99
70902;BME280;58548;47.210;8.618;2023-04-01T04:43:50;93172.28;;;16.24;30.97
70902;BME280;58548;47.210;8.618;2023-04-01T04:46:19;93165.41;;;16.23;30.85
70902;BME280;58548;47.210;8.618;2023-04-01T04:48:47;93175.03;;;16.12;30.51
70902;BME280;58548;47.210;8.618;2023-04-01T04:51:15;93176.13;;;15.94;31.63
70902;BME280;58548;47.210;8.618;2023-04-01T04:53:44;93200.59;;;15.72;34.00
70902;BME280;58548;47.210;8.618;2023-04-01T04:56:11;93059.16;;;14.67;34.87
70902;BME280;58548;47.210;8.618;2023-04-01T04:58:39;93079.75;;;14.70;34.65
70902;BME280;58548;47.210;8.618;2023-04-01T05:01:07;93102.91;;;14.73;35.28
70902;BME280;58548;47.210;8.618;2023-04-01T05:03:34;93203.28;;;15.38;35.23
70902;BME280;58548;47.210;8.618;2023-04-01T05:06:02;93072.78;;;14.63;35.09
70902;BME280;58548;47.210;8.618;2023-04-01T05:08:28;93193.41;;;15.45;35.46
70902;BME280;58548;47.210;8.618;2023-04-01T05:10:55;93106.09;;;14.92;34.94
70902;BME280;58548;47.210;8.618;2023-04-01T05:13:21;93181.88;;;15.51;35.16
70902;BME280;58548;47.210;8.618;2023-04-01T05:15:47;93213.34;;;15.80;34.71
70902;BME280;58548;47.210;8.618;2023-04-01T05:18:13;93210.84;;;15.91;34.46
70902;BME280;58548;47.210;8.618;2023-04-01T05:20:39;93203.28;;;15.77;34.30
70902;BME280;58548;47.210;8.618;2023-04-01T05:23:07;93216.53;;;15.82;34.53
70902;BME280;58548;47.210;8.618;2023-04-01T05:25:33;93184.25;;;15.70;33.98
70902;BME280;58548;47.210;8.618;2023-04-01T05:27:59;93220.88;;;15.89;34.56
70902;BME280;58548;47.210;8.618;2023-04-01T05:30:32;93010.53;;;14.64;34.15
70902;BME280;58548;47.210;8.618;2023-04-01T05:33:00;93130.25;;;15.45;34.04
70902;BME280;58548;47.210;8.618;2023-04-01T05:35:30;93078.81;;;15.15;34.09
70902;BME280;58548;47.210;8.618;2023-04-01T05:37:57;93210.75;;;16.03;33.96
70902;BME280;58548;47.210;8.618;2023-04-01T05:40:23;93069.75;;;15.06;34.08
70902;BME280;58548;47.210;8.618;2023-04-01T05:42:51;93203.88;;;16.02;33.86
70902;BME280;58548;47.210;8.618;2023-04-01T05:45:20;93213.75;;;16.11;34.05
70902;BME280;58548;47.210;8.618;2023-04-01T05:47:48;93218.03;;;16.18;33.76
70902;BME280;58548;47.210;8.618;2023-04-01T05:50:14;93222.03;;;16.20;33.91
70902;BME280;58548;47.210;8.618;2023-04-01T05:52:42;93220.25;;;16.26;34.15
70902;BME280;58548;47.210;8.618;2023-04-01T05:55:11;93032.72;;;15.30;34.06
70902;BME280;58548;47.210;8.618;2023-04-01T05:57:37;93220.53;;;16.52;33.37
70902;BME280;58548;47.210;8.618;2023-04-01T06:00:06;93075.84;;;15.73;33.58
70902;BME280;58548;47.210;8.618;2023-04-01T06:02:32;93206.97;;;16.65;33.39
70902;BME280;58548;47.210;8.618;2023-04-01T06:07:41;93226.03;;;16.72;33.52
70902;BME280;58548;47.210;8.618;2023-04-01T06:10:19;93106.38;;;16.19;33.23
70902;BME280;58548;47.210;8.618;2023-04-01T06:12:49;93214.63;;;16.94;32.30
70902;BME280;58548;47.210;8.618;2023-04-01T06:41:01;93231.16;;;17.44;31.94
70902;BME280;58548;47.210;8.618;2023-04-01T06:46:43;93094.44;;;16.71;31.39
70902;BME280;58548;47.210;8.618;2023-04-01T06:49:29;93212.81;;;17.65;32.09
70902;BME280;58548;47.210;8.618;2023-04-01T06:54:55;93203.13;;;17.86;30.25
70902;BME280;58548;47.210;8.618;2023-04-01T06:57:38;93102.34;;;17.03;30.55
70902;BME280;58548;47.210;8.618;2023-04-01T07:00:32;93206.78;;;17.75;30.56
70902;BME280;58548;47.210;8.618;2023-04-01T07:03:31;93211.22;;;17.64;30.29
70902;BME280;58548;47.210;8.618;2023-04-01T07:06:04;93103.41;;;17.02;29.96
70902;BME280;58548;47.210;8.618;2023-04-01T07:08:39;93107.13;;;17.07;30.64
70902;BME280;58548;47.210;8.618;2023-04-01T07:11:14;93083.31;;;16.96;30.01
70902;BME280;58548;47.210;8.618;2023-04-01T07:19:04;93208.66;;;17.42;30.14
70902;BME280;58548;47.210;8.618;2023-04-01T07:21:53;93199.44;;;17.39;30.70
70902;BME280;58548;47.210;8.618;2023-04-01T07:24:29;93207.38;;;17.44;30.73
70902;BME280;58548;47.210;8.618;2023-04-01T07:26:59;93125.47;;;16.91;31.00
70902;BME280;58548;47.210;8.618;2023-04-01T07:29:27;93211.81;;;17.39;30.92
70902;BME280;58548;47.210;8.618;2023-04-01T07:34:50;93217.13;;;17.44;31.70
70902;BME280;58548;47.210;8.618;2023-04-01T07:45:18;93102.22;;;16.88;31.82
70902;BME280;58548;47.210;8.618;2023-04-01T07:50:59;93222.03;;;17.68;31.58
70902;BME280;58548;47.210;8.618;2023-04-01T07:53:42;93178.63;;;17.48;31.55
70902;BME280;58548;47.210;8.618;2023-04-01T08:04:31;93242.72;;;17.81;30.91
70902;BME280;58548;47.210;8.618;2023-04-01T08:07:25;93187.69;;;17.62;31.02
70902;BME280;58548;47.210;8.618;2023-04-01T08:16:02;93227.63;;;18.24;30.49
70902;BME280;58548;47.210;8.618;2023-04-01T08:21:51;93232.47;;;18.48;30.06
70902;BME280;58548;47.210;8.618;2023-04-01T08:24:33;93239.34;;;18.44;29.63
70902;BME280;58548;47.210;8.618;2023-04-01T08:27:09;93243.00;;;18.33;30.09
70902;BME280;58548;47.210;8.618;2023-04-01T08:32:34;93147.69;;;17.91;30.76
70902;BME280;58548;47.210;8.618;2023-04-01T08:37:43;93195.72;;;18.31;30.38
70902;BME280;58548;47.210;8.618;2023-04-01T08:54:37;93229.94;;;18.79;30.69
70902;BME280;58548;47.210;8.618;2023-04-01T08:57:41;93231.28;;;18.87;30.50
70902;BME280;58548;47.210;8.618;2023-04-01T09:00:31;93118.78;;;18.28;29.93
70902;BME280;58548;47.210;8.618;2023-04-01T09:03:16;93217.81;;;18.99;30.37
70902;BME280;58548;47.210;8.618;2023-04-01T09:06:12;93229.72;;;18.96;30.22
70902;BME280;58548;47.210;8.618;2023-04-01T09:40:09;93225.34;;;17.90;30.14
70902;BME280;58548;47.210;8.618;2023-04-01T09:48:24;93229.09;;;17.57;31.02
70902;BME280;58548;47.210;8.618;2023-04-01T09:59:24;93243.66;;;18.02;30.70
70902;BME280;58548;47.210;8.618;2023-04-01T10:10:51;93238.66;;;18.80;29.38
70902;BME280;58548;47.210;8.618;2023-04-01T10:22:17;93234.25;;;19.06;29.43
70902;BME280;58548;47.210;8.618;2023-04-01T10:36:58;93102.97;;;18.59;27.85
70902;BME280;58548;47.210;8.618;2023-04-01T11:10:21;93119.88;;;19.46;26.65
70902;BME280;58548;47.210;8.618;2023-04-01T11:13:13;93218.81;;;20.12;26.84
70902;BME280;58548;47.210;8.618;2023-04-01T11:32:12;93227.31;;;19.78;28.03
70902;BME280;58548;47.210;8.618;2023-04-01T11:35:01;93149.56;;;19.06;29.02
70902;BME280;58548;47.210;8.618;2023-04-01T11:46:23;93236.91;;;19.48;28.60
70902;BME280;58548;47.210;8.618;2023-04-01T12:09:23;93250.03;;;20.20;26.06
70902;BME280;58548;47.210;8.618;2023-04-01T12:12:42;93238.47;;;19.90;26.26
70902;BME280;58548;47.210;8.618;2023-04-01T12:21:15;93220.25;;;20.44;26.36
70902;BME280;58548;47.210;8.618;2023-04-01T12:32:06;93249.94;;;20.51;26.58
70902;BME280;58548;47.210;8.618;2023-04-01T12:37:18;93250.53;;;20.32;26.78
70902;BME280;58548;47.210;8.618;2023-04-01T12:40:23;93198.19;;;19.83;27.20
70902;BME280;58548;47.210;8.618;2023-04-01T12:56:42;93224.28;;;20.91;26.45
70902;BME280;58548;47.210;8.618;2023-04-01T13:02:30;93225.81;;;21.37;26.29
70902;BME280;58548;47.210;8.618;2023-04-01T13:07:49;93234.09;;;21.95;26.91
70902;BME280;58548;47.210;8.618;2023-04-01T13:21:33;93230.16;;;22.17;24.69
70902;BME280;58548;47.210;8.618;2023-04-01T13:27:30;93225.63;;;22.41;24.78
70902;BME280;58548;47.210;8.618;2023-04-01T13:40:54;93127.72;;;21.76;23.95
70902;BME280;58548;47.210;8.618;2023-04-01T13:43:38;93188.81;;;22.29;23.84
70902;BME280;58548;47.210;8.618;2023-04-01T13:54:17;93212.25;;;22.71;23.29
70902;BME280;58548;47.210;8.618;2023-04-01T13:57:14;93211.94;;;22.72;23.37
70902;BME280;58548;47.210;8.618;2023-04-01T14:00:15;93209.78;;;22.74;23.08
70902;BME280;58548;47.210;8.618;2023-04-01T14:10:43;93204.09;;;22.81;22.62
70902;BME280;58548;47.210;8.618;2023-04-01T14:16:27;93105.91;;;22.22;22.86
70902;BME280;58548;47.210;8.618;2023-04-01T14:19:21;93188.88;;;22.87;22.64
70902;BME280;58548;47.210;8.618;2023-04-01T14:27:44;93168.06;;;22.89;23.15
70902;BME280;58548;47.210;8.618;2023-04-01T14:33:28;93182.63;;;22.97;23.04
70902;BME280;58548;47.210;8.618;2023-04-01T14:49:49;93106.97;;;22.02;23.09
70902;BME280;58548;47.210;8.618;2023-04-01T14:52:35;93124.66;;;21.88;23.14
70902;BME280;58548;47.210;8.618;2023-04-01T14:55:21;93167.47;;;22.10;23.92
70902;BME280;58548;47.210;8.618;2023-04-01T15:09:10;93227.94;;;21.99;24.65
70902;BME280;58548;47.210;8.618;2023-04-01T15:30:36;93220.88;;;21.90;26.17
70902;BME280;58548;47.210;8.618;2023-04-01T15:38:51;93215.84;;;22.12;26.07
70902;BME280;58548;47.210;8.618;2023-04-01T15:41:54;93212.06;;;22.19;26.14
70902;BME280;58548;47.210;8.618;2023-04-01T15:44:53;93210.34;;;22.28;25.90
70902;BME280;58548;47.210;8.618;2023-04-01T15:50:00;93223.59;;;22.33;26.29
70902;BME280;58548;47.210;8.618;2023-04-01T15:55:31;93229.41;;;22.35;25.96
70902;BME280;58548;47.210;8.618;2023-04-01T16:01:46;93222.22;;;22.36;26.16
70902;BME280;58548;47.210;8.618;2023-04-01T16:15:57;93137.28;;;21.47;26.25
70902;BME280;58548;47.210;8.618;2023-04-01T16:21:49;93228.84;;;21.90;26.85
70902;BME280;58548;47.210;8.618;2023-04-01T16:30:40;93249.69;;;21.77;27.06
70902;BME280;58548;47.210;8.618;2023-04-01T16:35:47;93260.44;;;21.62;27.23
70902;BME280;58548;47.210;8.618;2023-04-01T16:38:26;93166.88;;;21.01;27.76
70902;BME280;58548;47.210;8.618;2023-04-01T16:43:45;93171.31;;;20.76;27.91
70902;BME280;58548;47.210;8.618;2023-04-01T16:57:28;93279.72;;;20.22;31.10
70902;BME280;58548;47.210;8.618;2023-04-01T17:00:09;93204.59;;;19.40;31.99
70902;BME280;58548;47.210;8.618;2023-04-01T17:11:27;93292.50;;;19.48;31.73
70902;BME280;58548;47.210;8.618;2023-04-01T17:27:51;93291.59;;;18.90;31.62
70902;BME280;58548;47.210;8.618;2023-04-01T17:36:16;93190.28;;;18.00;32.13
70902;BME280;58548;47.210;8.618;2023-04-01T17:41:57;93273.41;;;18.35;32.27
70902;BME280;58548;47.210;8.618;2023-04-01T17:47:38;93297.50;;;18.44;32.75
70902;BME280;58548;47.210;8.618;2023-04-01T17:52:43;93309.75;;;18.13;32.54
70902;BME280;58548;47.210;8.618;2023-04-01T18:08:58;93311.09;;;17.45;33.92
70902;BME280;58548;47.210;8.618;2023-04-01T18:23:03;93316.44;;;17.50;33.57
70902;BME280;58548;47.210;8.618;2023-04-01T18:36:13;93325.28;;;17.39;33.29
70902;BME280;58548;47.210;8.618;2023-04-01T18:38:50;93329.09;;;17.48;32.92
70902;BME280;58548;47.210;8.618;2023-04-01T18:41:29;93330.41;;;17.45;32.71
70902;BME280;58548;47.210;8.618;2023-04-01T18:52:17;93243.88;;;16.65;33.37
70902;BME280;58548;47.210;8.618;2023-04-01T18:55:18;93299.63;;;17.01;33.33
70902;BME280;58548;47.210;8.618;2023-04-01T19:00:26;93267.00;;;16.85;32.80
70902;BME280;58548;47.210;8.618;2023-04-01T19:03:32;93290.44;;;17.04;32.96
70902;BME280;58548;47.210;8.618;2023-04-01T19:06:17;93340.59;;;17.37;33.21
70902;BME280;58548;47.210;8.618;2023-04-01T19:08:46;93366.81;;;17.48;32.87
70902;BME280;58548;47.210;8.618;2023-04-01T19:23:17;93390.75;;;17.37;33.38
70902;BME280;58548;47.210;8.618;2023-04-01T19:25:58;93414.25;;;17.38;33.27
70902;BME280;58548;47.210;8.618;2023-04-01T19:37:08;93400.94;;;17.28;33.74
70902;BME280;58548;47.210;8.618;2023-04-01T19:45:23;93405.34;;;17.22;33.86
70902;BME280;58548;47.210;8.618;2023-04-01T19:51:06;93406.97;;;17.23;34.54
70902;BME280;58548;47.210;8.618;2023-04-01T19:53:47;93299.09;;;16.55;34.29
70902;BME280;58548;47.210;8.618;2023-04-01T19:56:24;93306.56;;;16.63;34.38
70902;BME280;58548;47.210;8.618;2023-04-01T19:59:19;93420.56;;;17.37;34.39
70902;BME280;58548;47.210;8.618;2023-04-01T20:04:40;93411.19;;;17.52;34.46
70902;BME280;58548;47.210;8.618;2023-04-01T20:07:27;93416.00;;;17.55;34.25
70902;BME280;58548;47.210;8.618;2023-04-01T20:14:58;93413.06;;;17.51;34.57
70902;BME280;58548;47.210;8.618;2023-04-01T20:17:53;93412.56;;;17.54;34.45
70902;BME280;58548;47.210;8.618;2023-04-01T20:20:31;93160.81;;;15.91;34.20
70902;BME280;58548;47.210;8.618;2023-04-01T20:25:46;93427.94;;;17.62;33.96
70902;BME280;58548;47.210;8.618;2023-04-01T20:36:49;93318.69;;;16.86;34.07
70902;BME280;58548;47.210;8.618;2023-04-01T20:50:42;93400.81;;;16.95;34.02
70902;BME280;58548;47.210;8.618;2023-04-01T20:53:19;93387.03;;;16.88;34.12
70902;BME280;58548;47.210;8.618;2023-04-01T21:25:59;93337.28;;;16.30;34.92
70902;BME280;58548;47.210;8.618;2023-04-01T21:28:41;93449.34;;;16.94;34.99
70902;BME280;58548;47.210;8.618;2023-04-01T21:34:34;93472.44;;;16.87;34.71
70902;BME280;58548;47.210;8.618;2023-04-01T21:53:55;93340.34;;;16.05;34.91
70902;BME280;58548;47.210;8.618;2023-04-01T21:56:43;93360.91;;;16.25;34.69
70902;BME280;58548;47.210;8.618;2023-04-01T22:12:22;93419.19;;;16.68;34.09
70902;BME280;58548;47.210;8.618;2023-04-01T22:18:04;93372.56;;;16.29;34.44
70902;BME280;58548;47.210;8.618;2023-04-01T22:20:41;93360.84;;;16.20;34.31
70902;BME280;58548;47.210;8.618;2023-04-01T22:23:42;93473.22;;;16.87;34.19
70902;BME280;58548;47.210;8.618;2023-04-01T22:26:40;93484.78;;;16.81;34.08
70902;BME280;58548;47.210;8.618;2023-04-01T22:32:04;93382.72;;;16.03;34.17
70902;BME280;58548;47.210;8.618;2023-04-01T22:48:41;93507.00;;;16.68;34.95
70902;BME280;58548;47.210;8.618;2023-04-01T22:51:15;93500.13;;;16.67;34.89
70902;BME280;58548;47.210;8.618;2023-04-01T22:56:37;93503.25;;;16.64;34.75
70902;BME280;58548;47.210;8.618;2023-04-01T22:59:22;93500.69;;;16.69;34.39
70902;BME280;58548;47.210;8.618;2023-04-01T23:02:02;93505.41;;;16.67;34.20
70902;BME280;58548;47.210;8.618;2023-04-01T23:04:39;93504.91;;;16.70;34.51
70902;BME280;58548;47.210;8.618;2023-04-01T23:10:14;93393.25;;;16.03;34.11
70902;BME280;58548;47.210;8.618;2023-04-01T23:12:42;93478.50;;;16.48;34.18
70902;BME280;58548;47.210;8.618;2023-04-01T23:15:13;93406.75;;;16.07;33.86
70902;BME280;58548;47.210;8.618;2023-04-01T23:18:32;93407.47;;;16.02;33.89
70902;BME280;58548;47.210;8.618;2023-04-01T23:26:30;93516.72;;;16.68;33.70
70902;BME280;58548;47.210;8.618;2023-04-01T23:29:01;93379.94;;;15.93;34.06
70902;BME280;58548;47.210;8.618;2023-04-01T23:31:40;93517.06;;;16.71;33.90
70902;BME280;58548;47.210;8.618;2023-04-01T23:36:43;93463.81;;;16.35;33.76
70902;BME280;58548;47.210;8.618;2023-04-01T23:39:23;93490.47;;;16.56;33.35
70902;BME280;58548;47.210;8.618;2023-04-01T23:42:02;93476.03;;;16.41;33.43
70902;BME280;58548;47.210;8.618;2023-04-01T23:44:31;93519.94;;;16.70;33.25
70902;BME280;58548;47.210;8.618;2023-04-01T23:46:59;93520.41;;;16.67;33.60
70902;BME280;58548;47.210;8.618;2023-04-01T23:49:44;93498.84;;;16.53;33.88
70902;BME280;58548;47.210;8.618;2023-04-01T23:52:35;93523.78;;;16.62;33.49
70902;BME280;58548;47.210;8.618;2023-04-01T23:55:14;93517.38;;;16.58;33.65
